Time;durP1;ratioP1;P1;durP2;ratioP2;P2;SDS_P1;SDS_P2;PMS_P1;PMS_P2;Temp;Humidity;BMP_temperature;BMP_pressure;BME280_temperature;BME280_humidity;BME280_pressure;Samples;Min_cycle;Max_cycle;Signal;HPM_P1;HPM_P2
2022/06/13 00:01:57;;;;;;;2.20;1.00;;;12.50;99.90;;;;;;5066383;28;20044;-76
2022/06/13 00:04:23;;;;;;;1.73;0.80;;;12.50;99.90;;;;;;5072467;28;20037;-75
2022/06/13 00:06:48;;;;;;;1.77;1.00;;;12.50;99.90;;;;;;5069305;28;20048;-76
2022/06/13 00:09:15;;;;;;;1.52;0.82;;;12.40;99.90;;;;;;5067306;28;20047;-69
2022/06/13 00:11:41;;;;;;;2.25;1.05;;;12.40;99.90;;;;;;5070385;28;20479;-69
2022/06/13 00:14:07;;;;;;;1.92;0.90;;;12.30;99.90;;;;;;5070203;28;20048;-68
2022/06/13 00:16:33;;;;;;;1.63;1.05;;;12.40;99.90;;;;;;5069057;28;20055;-69
2022/06/13 00:18:59;;;;;;;;;;;12.40;99.90;;;;;;5069214;28;20052;-69
2022/06/13 00:21:31;;;;;;;1.38;0.90;;;12.30;99.90;;;;;;5065570;28;20343;-69
2022/06/13 00:23:58;;;;;;;2.22;1.00;;;12.30;99.90;;;;;;5043762;28;20049;-69
2022/06/13 00:26:25;;;;;;;3.53;1.35;;;12.30;99.90;;;;;;5052358;28;20487;-69
2022/06/13 00:28:52;;;;;;;1.35;1.08;;;12.20;99.90;;;;;;5083621;28;20939;-69
2022/06/13 00:31:18;;;;;;;1.67;0.90;;;12.30;99.90;;;;;;5051898;28;20040;-69
2022/06/13 00:33:44;;;;;;;3.75;1.00;;;12.20;99.90;;;;;;5069049;28;20527;-69
2022/06/13 00:36:10;;;;;;;2.47;1.10;;;12.20;99.90;;;;;;5076005;28;20056;-69
2022/06/13 00:38:37;;;;;;;2.42;1.10;;;12.20;99.90;;;;;;5058305;28;20048;-69
2022/06/13 00:41:14;;;;;;;2.17;0.95;;;12.20;99.90;;;;;;5069298;28;20040;-69
2022/06/13 00:43:41;;;;;;;3.80;1.42;;;12.20;99.90;;;;;;5081341;28;20044;-69
2022/06/13 00:46:26;;;;;;;3.22;1.10;;;12.20;99.90;;;;;;5067421;28;20040;-69
2022/06/13 00:49:03;;;;;;;3.47;1.55;;;12.30;99.90;;;;;;5067093;28;20053;-69
2022/06/13 00:51:31;;;;;;;3.03;1.50;;;12.30;99.90;;;;;;5067234;28;20523;-69
2022/06/13 00:53:57;;;;;;;3.33;1.70;;;12.40;99.90;;;;;;5086592;28;20484;-69
2022/06/13 00:56:26;;;;;;;2.67;1.50;;;12.40;99.90;;;;;;5052573;28;20036;-69
2022/06/13 00:58:58;;;;;;;3.03;1.60;;;12.40;99.90;;;;;;5070198;28;20041;-69
2022/06/13 01:01:25;;;;;;;3.03;1.50;;;12.40;99.90;;;;;;5051683;28;20106;-69
2022/06/13 01:03:51;;;;;;;3.03;1.40;;;12.40;99.90;;;;;;5068650;28;20041;-69
2022/06/13 01:06:18;;;;;;;2.58;1.20;;;12.50;99.90;;;;;;5051320;28;20414;-69
2022/06/13 01:08:44;;;;;;;3.78;1.70;;;12.50;99.90;;;;;;5073707;28;20052;-69
2022/06/13 01:11:16;;;;;;;3.85;1.88;;;12.50;99.90;;;;;;5067367;28;20052;-69
2022/06/13 01:14:11;;;;;;;3.20;1.70;;;12.50;99.90;;;;;;5069799;28;20056;-69
2022/06/13 01:17:05;;;;;;;3.83;1.70;;;12.60;99.90;;;;;;5067775;28;20480;-69
2022/06/13 01:20:21;;;;;;;6.57;1.88;;;12.50;99.90;;;;;;5065112;28;20376;-69
2022/06/13 01:23:22;;;;;;;4.00;1.92;;;12.60;99.90;;;;;;5013796;28;20071;-69
2022/06/13 01:26:10;;;;;;;5.03;2.00;;;12.50;99.90;;;;;;5063785;28;20052;-69
2022/06/13 01:28:52;;;;;;;6.15;1.80;;;12.50;99.90;;;;;;5053258;28;20044;-69
2022/06/13 01:31:49;;;;;;;4.68;1.95;;;12.50;99.90;;;;;;5064249;28;20040;-69
2022/06/13 01:34:50;;;;;;;6.90;2.13;;;12.60;99.90;;;;;;5067581;28;20044;-69
2022/06/13 01:37:24;;;;;;;5.95;2.40;;;12.60;99.90;;;;;;5038071;28;20131;-69
2022/06/13 01:40:15;;;;;;;4.35;2.05;;;12.60;99.90;;;;;;5065958;28;20037;-69
2022/06/13 01:42:49;;;;;;;3.53;2.38;;;12.60;99.90;;;;;;5051710;28;20044;-69
2022/06/13 01:45:35;;;;;;;4.20;1.90;;;12.70;99.90;;;;;;5068180;28;20441;-69
2022/06/13 01:48:05;;;;;;;3.55;1.88;;;12.70;99.90;;;;;;5063090;28;20105;-69
2022/06/13 01:50:44;;;;;;;3.45;1.63;;;12.60;99.90;;;;;;5065549;28;20033;-69
2022/06/13 01:53:28;;;;;;;3.72;1.73;;;12.70;99.90;;;;;;5066960;28;20157;-69
2022/06/13 01:56:23;;;;;;;4.93;1.92;;;12.80;99.90;;;;;;5066135;28;20036;-69
2022/06/13 01:59:19;;;;;;;3.58;1.58;;;12.70;99.90;;;;;;5039424;28;20498;-69
2022/06/13 02:01:58;;;;;;;4.75;2.10;;;12.70;99.90;;;;;;5072783;28;20090;-69
2022/06/13 02:04:39;;;;;;;3.75;1.80;;;12.70;99.90;;;;;;5066568;28;20086;-69
2022/06/13 02:07:10;;;;;;;3.30;1.80;;;12.60;99.90;;;;;;5072783;28;20131;-69
2022/06/13 02:09:49;;;;;;;2.47;1.58;;;12.70;99.90;;;;;;5052453;28;20049;-69
2022/06/13 02:12:16;;;;;;;4.30;1.60;;;12.70;99.90;;;;;;5069101;28;20047;-69
2022/06/13 02:14:45;;;;;;;3.85;1.83;;;12.70;99.90;;;;;;5070781;28;20131;-69
2022/06/13 02:17:14;;;;;;;4.70;1.85;;;12.70;99.90;;;;;;5077250;28;20373;-69
2022/06/13 02:19:58;;;;;;;4.53;1.98;;;12.70;99.90;;;;;;5070930;28;20329;-69
2022/06/13 02:22:31;;;;;;;4.03;1.95;;;12.80;99.90;;;;;;5070419;28;20055;-69
2022/06/13 02:25:07;;;;;;;4.40;2.10;;;12.70;99.90;;;;;;5071200;28;20104;-69
2022/06/13 02:27:36;;;;;;;2.80;1.57;;;12.70;99.90;;;;;;5067866;28;20083;-69
2022/06/13 02:30:13;;;;;;;3.65;1.50;;;12.70;99.90;;;;;;5066127;28;20378;-69
2022/06/13 02:32:50;;;;;;;3.70;1.90;;;12.70;99.90;;;;;;5070876;28;20037;-69
2022/06/13 02:35:27;;;;;;;5.03;2.35;;;12.80;99.90;;;;;;5055715;28;20049;-69
2022/06/13 02:38:00;;;;;;;6.13;2.40;;;12.80;99.90;;;;;;5071315;28;20129;-69
2022/06/13 02:40:32;;;;;;;6.35;2.40;;;12.80;99.90;;;;;;5071223;28;20041;-69
2022/06/13 02:43:01;;;;;;;4.88;2.40;;;12.80;99.90;;;;;;5079534;28;20040;-69
2022/06/13 02:45:38;;;;;;;5.78;2.10;;;12.80;99.90;;;;;;5070698;28;20479;-69
2022/06/13 02:48:09;;;;;;;6.85;2.05;;;12.80;99.90;;;;;;5070395;28;20504;-69
2022/06/13 02:50:47;;;;;;;5.22;2.10;;;12.80;99.90;;;;;;5055331;28;20510;-69
2022/06/13 02:53:23;;;;;;;5.10;2.45;;;12.80;99.90;;;;;;5087600;28;20039;-69
2022/06/13 02:56:18;;;;;;;4.57;2.20;;;12.80;99.90;;;;;;5088847;28;20480;-69
2022/06/13 02:59:24;;;;;;;5.45;2.30;;;12.80;99.90;;;;;;5037203;28;20949;-70
2022/06/13 03:01:55;;;;;;;5.63;2.53;;;12.80;99.90;;;;;;5062870;28;20048;-69
2022/06/13 03:04:42;;;;;;;8.98;2.88;;;12.80;99.90;;;;;;5041826;28;20051;-69
2022/06/13 03:07:25;;;;;;;5.93;2.50;;;12.80;99.90;;;;;;5075883;28;20083;-69
2022/06/13 03:09:56;;;;;;;4.00;1.90;;;12.80;99.90;;;;;;5075169;28;20052;-68
2022/06/13 03:12:33;;;;;;;5.40;2.40;;;12.80;99.90;;;;;;5058858;28;20048;-69
2022/06/13 03:15:18;;;;;;;4.68;2.30;;;12.80;99.90;;;;;;5078317;28;20045;-68
2022/06/13 03:18:08;;;;;;;3.72;1.98;;;12.80;99.90;;;;;;5068149;28;20047;-68
2022/06/13 03:20:49;;;;;;;3.92;2.13;;;12.80;99.90;;;;;;5059245;28;20051;-69
2022/06/13 03:23:28;;;;;;;3.97;1.98;;;12.80;99.90;;;;;;5070412;28;20044;-68
2022/06/13 03:26:02;;;;;;;3.85;1.80;;;12.80;99.90;;;;;;5072451;28;20144;-69
2022/06/13 03:28:44;;;;;;;3.58;1.75;;;12.80;99.90;;;;;;5060654;28;20086;-68
2022/06/13 03:31:21;;;;;;;4.38;1.60;;;12.80;99.90;;;;;;5067685;28;20043;-69
2022/06/13 03:33:52;;;;;;;7.47;2.35;;;12.80;99.90;;;;;;5067692;28;20473;-68
2022/06/13 03:36:21;;;;;;;5.13;2.17;;;12.80;99.90;;;;;;5080956;28;20045;-69
2022/06/13 03:38:55;;;;;;;4.10;1.67;;;12.80;99.90;;;;;;5071392;28;20090;-68
2022/06/13 03:41:25;;;;;;;3.65;1.77;;;12.80;99.90;;;;;;5070892;28;20536;-68
2022/06/13 03:44:08;;;;;;;3.50;1.58;;;12.80;99.90;;;;;;5086025;28;20423;-68
2022/06/13 03:46:47;;;;;;;2.65;1.30;;;12.80;99.90;;;;;;5077962;28;20048;-69
2022/06/13 03:49:23;;;;;;;3.13;1.60;;;12.80;99.90;;;;;;5058273;28;20426;-69
2022/06/13 03:51:53;;;;;;;3.67;1.60;;;12.70;99.90;;;;;;5050740;28;20040;-69
2022/06/13 03:54:33;;;;;;;4.47;1.55;;;12.80;99.90;;;;;;5070357;28;20037;-69
2022/06/13 03:57:06;;;;;;;3.60;1.70;;;12.80;99.90;;;;;;5063115;28;20434;-68
2022/06/13 03:59:36;;;;;;;3.03;1.70;;;12.80;99.90;;;;;;5085405;28;20438;-69
2022/06/13 04:02:11;;;;;;;2.47;1.50;;;12.80;99.90;;;;;;5063719;28;20037;-69
2022/06/13 04:04:41;;;;;;;2.80;1.50;;;12.80;99.90;;;;;;5068527;28;20051;-68
2022/06/13 04:07:06;;;;;;;3.58;1.60;;;12.80;99.90;;;;;;5067471;28;20048;-68
2022/06/13 04:09:43;;;;;;;2.10;1.30;;;12.90;99.90;;;;;;5067455;28;20036;-69
2022/06/13 04:12:21;;;;;;;4.78;1.83;;;12.90;99.90;;;;;;5068416;28;20085;-68
2022/06/13 04:14:50;;;;;;;6.13;2.00;;;12.90;99.90;;;;;;5066791;28;20106;-69
2022/06/13 04:17:38;;;;;;;4.63;1.73;;;12.90;99.90;;;;;;5069438;28;20545;-68
2022/06/13 04:20:29;;;;;;;4.40;1.60;;;13.00;99.90;;;;;;5066753;28;20029;-68
2022/06/13 04:23:05;;;;;;;4.38;1.58;;;13.00;99.90;;;;;;5045647;28;20047;-68
2022/06/13 04:26:09;;;;;;;2.58;1.42;;;13.00;99.90;;;;;;5049803;28;20051;-68
2022/06/13 04:29:11;;;;;;;2.35;1.15;;;13.00;99.90;;;;;;5065306;28;20044;-69
2022/06/13 04:31:38;;;;;;;2.67;1.52;;;13.10;99.90;;;;;;5048039;28;20079;-68
2022/06/13 04:34:12;;;;;;;3.45;1.60;;;13.10;99.90;;;;;;5066560;28;20399;-68
2022/06/13 04:36:39;;;;;;;2.92;1.50;;;13.10;99.90;;;;;;5071751;28;20483;-69
2022/06/13 04:39:07;;;;;;;1.95;1.15;;;13.20;99.90;;;;;;5048493;28;20128;-68
2022/06/13 04:41:38;;;;;;;4.63;1.60;;;13.20;99.90;;;;;;5055891;28;20490;-68
2022/06/13 04:44:05;;;;;;;7.18;1.80;;;13.20;99.90;;;;;;5064477;28;20040;-69
2022/06/13 04:46:35;;;;;;;4.30;1.70;;;13.30;99.90;;;;;;5051727;28;20059;-68
2022/06/13 04:49:07;;;;;;;4.38;1.77;;;13.40;99.90;;;;;;5068759;28;20048;-68
2022/06/13 04:51:39;;;;;;;6.40;2.05;;;13.40;99.90;;;;;;5075271;28;20502;-69
2022/06/13 04:54:22;;;;;;;5.85;2.10;;;13.50;99.90;;;;;;5044297;28;20140;-68
2022/06/13 04:56:48;;;;;;;4.82;1.58;;;13.50;99.90;;;;;;5045635;28;20076;-68
2022/06/13 04:59:15;;;;;;;5.90;1.92;;;13.70;99.90;;;;;;5049225;28;20068;-69
2022/06/13 05:01:47;;;;;;;5.78;1.92;;;13.70;99.90;;;;;;5056385;28;20054;-75
2022/06/13 05:04:17;;;;;;;6.45;2.40;;;13.70;99.90;;;;;;5075399;28;20044;-75
2022/06/13 05:06:47;;;;;;;4.78;1.95;;;13.60;99.90;;;;;;5077295;28;20052;-75
2022/06/13 05:09:22;;;;;;;5.38;1.83;;;13.50;99.90;;;;;;5051102;28;20055;-75
2022/06/13 05:11:51;;;;;;;7.90;1.80;;;13.40;99.90;;;;;;5069690;28;20044;-75
2022/06/13 05:14:29;;;;;;;7.43;2.00;;;13.30;99.90;;;;;;5060959;28;20060;-74
2022/06/13 05:17:01;;;;;;;6.55;2.47;;;13.40;99.90;;;;;;5061385;28;20036;-75
2022/06/13 05:19:48;;;;;;;3.30;1.23;;;13.20;99.90;;;;;;5061884;28;20189;-74
2022/06/13 05:22:32;;;;;;;4.25;1.00;;;13.20;99.90;;;;;;5059757;28;20068;-75
2022/06/13 05:25:32;;;;;;;3.47;1.35;;;13.20;99.90;;;;;;5048609;28;20456;-74
2022/06/13 05:27:57;;;;;;;3.35;1.25;;;13.10;99.90;;;;;;5064864;28;20040;-74
2022/06/13 05:30:24;;;;;;;2.45;1.00;;;13.10;99.90;;;;;;5067238;28;20040;-75
2022/06/13 05:32:50;;;;;;;3.03;0.93;;;13.00;99.90;;;;;;5050260;28;20048;-75
2022/06/13 05:35:23;;;;;;;2.67;0.85;;;12.90;99.90;;;;;;5075110;28;20120;-75
2022/06/13 05:37:50;;;;;;;3.38;0.90;;;13.00;99.90;;;;;;5054635;28;20039;-75
2022/06/13 05:40:20;;;;;;;2.58;0.90;;;13.00;99.90;;;;;;5067040;28;20067;-75
2022/06/13 05:42:47;;;;;;;1.38;0.60;;;13.10;99.90;;;;;;5052843;28;20551;-74
2022/06/13 05:45:18;;;;;;;1.17;0.60;;;13.30;99.90;;;;;;5085061;28;20049;-74
2022/06/13 05:47:46;;;;;;;1.63;0.70;;;13.40;99.90;;;;;;5072669;28;20054;-75
2022/06/13 05:50:22;;;;;;;3.25;0.60;;;13.40;99.90;;;;;;5088400;28;20048;-74
2022/06/13 05:52:48;;;;;;;3.78;0.88;;;13.40;99.90;;;;;;5085569;28;20050;-74
2022/06/13 05:55:14;;;;;;;;;;;13.40;99.90;;;;;;5078160;28;20118;-74
2022/06/13 05:57:40;;;;;;;3.13;0.82;;;13.40;99.90;;;;;;5089740;28;20003;-75
2022/06/13 06:00:14;;;;;;;2.22;0.95;;;13.30;99.90;;;;;;5089328;28;20502;-74
2022/06/13 06:02:40;;;;;;;3.38;0.85;;;13.30;99.90;;;;;;5083996;28;20395;-75
2022/06/13 06:05:06;;;;;;;2.08;0.73;;;13.30;99.90;;;;;;5052425;28;20066;-74
2022/06/13 06:07:33;;;;;;;5.05;1.05;;;13.30;99.90;;;;;;5067042;28;20148;-74
2022/06/13 06:10:00;;;;;;;3.15;0.80;;;13.30;99.90;;;;;;5070451;28;20039;-75
2022/06/13 06:12:25;;;;;;;3.10;0.88;;;13.40;99.90;;;;;;5044812;28;20080;-75
2022/06/13 06:14:51;;;;;;;3.30;1.08;;;13.50;99.90;;;;;;5069777;28;20095;-75
2022/06/13 06:17:17;;;;;;;3.42;1.05;;;13.60;99.90;;;;;;5051291;28;20043;-75
2022/06/13 06:19:42;;;;;;;2.63;0.80;;;13.70;99.90;;;;;;5065631;28;20138;-74
2022/06/13 06:22:08;;;;;;;4.25;1.10;;;13.90;99.90;;;;;;5077610;28;20051;-74
2022/06/13 06:24:34;;;;;;;6.88;1.27;;;14.00;99.90;;;;;;5062452;28;20044;-75
2022/06/13 06:27:00;;;;;;;4.57;1.20;;;13.90;99.90;;;;;;5078879;28;20082;-75
2022/06/13 06:29:26;;;;;;;3.15;1.10;;;13.80;99.90;;;;;;5066447;28;20048;-74
2022/06/13 06:31:52;;;;;;;4.03;1.00;;;13.80;99.90;;;;;;5066724;28;20047;-74
2022/06/13 06:34:17;;;;;;;2.08;0.85;;;13.80;99.90;;;;;;5049166;28;20064;-74
2022/06/13 06:36:43;;;;;;;3.80;0.98;;;13.90;99.90;;;;;;5066628;28;20044;-74
2022/06/13 06:39:09;;;;;;;3.83;1.10;;;14.10;99.90;;;;;;5050937;28;20087;-74
2022/06/13 06:41:35;;;;;;;5.65;1.27;;;14.10;99.90;;;;;;5051212;28;20037;-75
2022/06/13 06:44:00;;;;;;;3.05;0.80;;;14.20;99.90;;;;;;5072757;28;20049;-70
2022/06/13 06:46:26;;;;;;;5.00;1.20;;;14.50;99.90;;;;;;5067687;28;20079;-69
2022/06/13 06:48:52;;;;;;;4.25;1.10;;;14.60;99.90;;;;;;5068000;28;20048;-69
2022/06/13 06:51:18;;;;;;;4.43;1.17;;;14.80;99.90;;;;;;5069434;28;20037;-68
2022/06/13 07:02:01;;;;;;;4.80;1.00;;;15.00;99.90;;;;;;5080889;28;20091;-69
2022/06/13 07:04:27;;;;;;;4.97;1.20;;;15.00;99.90;;;;;;5071785;28;20527;-69
2022/06/13 07:06:52;;;;;;;5.10;1.30;;;15.00;99.90;;;;;;5069859;28;20045;-69
2022/06/13 07:09:18;;;;;;;6.28;1.60;;;14.70;99.90;;;;;;5053438;28;20036;-69
2022/06/13 07:11:54;;;;;;;5.93;1.05;;;14.50;99.90;;;;;;5084102;28;20040;-69
2022/06/13 07:14:29;;;;;;;3.47;1.10;;;14.40;99.90;;;;;;5070683;28;20060;-69
2022/06/13 07:16:58;;;;;;;4.47;1.20;;;14.20;99.90;;;;;;5068431;28;20053;-70
2022/06/13 07:19:24;;;;;;;7.05;1.10;;;14.00;99.90;;;;;;5070208;28;20061;-69
2022/06/13 07:21:49;;;;;;;;;;;14.10;99.90;;;;;;5050518;28;20412;-69
2022/06/13 07:24:15;;;;;;;4.22;1.27;;;14.40;99.90;;;;;;5052809;28;19920;-69
2022/06/13 07:26:41;;;;;;;7.10;1.58;;;14.90;99.90;;;;;;5068329;28;20036;-70
2022/06/13 07:29:07;;;;;;;5.72;1.45;;;14.80;99.90;;;;;;5064064;28;20127;-69
2022/06/13 07:31:45;;;;;;;5.00;1.17;;;14.70;99.90;;;;;;5071267;28;20071;-70
2022/06/13 07:34:15;;;;;;;5.93;1.05;;;14.40;99.90;;;;;;5050976;28;20045;-76
2022/06/13 07:36:42;;;;;;;5.32;1.10;;;14.20;99.90;;;;;;5072686;28;20037;-70
2022/06/13 07:39:08;;;;;;;4.47;0.98;;;14.00;99.90;;;;;;5064265;28;20063;-70
2022/06/13 07:41:36;;;;;;;6.13;1.38;;;14.00;99.90;;;;;;5058185;28;20388;-71
2022/06/13 07:44:02;;;;;;;6.82;1.23;;;14.00;99.90;;;;;;5075702;28;20055;-70
2022/06/13 07:46:29;;;;;;;;;;;14.10;99.90;;;;;;5068648;28;20080;-70
2022/06/13 07:48:55;;;;;;;5.93;1.65;;;14.10;99.90;;;;;;5068324;28;19923;-70
2022/06/13 07:51:21;;;;;;;;;;;14.20;99.90;;;;;;5071576;28;20044;-70
2022/06/13 07:53:47;;;;;;;4.40;1.08;;;14.50;99.90;;;;;;5066287;28;19947;-70
2022/06/13 07:56:16;;;;;;;4.25;0.93;;;14.80;99.90;;;;;;5069614;28;20409;-70
2022/06/13 07:58:44;;;;;;;4.53;1.10;;;15.10;99.90;;;;;;5087438;28;20033;-71
2022/06/13 08:01:11;;;;;;;5.45;1.10;;;15.30;99.90;;;;;;5079338;28;21116;-70
2022/06/13 08:03:37;;;;;;;2.40;0.80;;;15.30;99.90;;;;;;5057018;28;20755;-70
2022/06/13 08:06:04;;;;;;;3.50;1.50;;;15.00;99.90;;;;;;5068066;28;20043;-73
2022/06/13 08:08:31;;;;;;;3.60;0.90;;;14.90;99.90;;;;;;5060014;28;20058;-68
2022/06/13 08:11:01;;;;;;;3.05;0.93;;;15.00;99.90;;;;;;5087855;28;20384;-70
2022/06/13 08:13:27;;;;;;;4.90;1.08;;;15.00;99.90;;;;;;5075283;28;20314;-69
2022/06/13 08:15:53;;;;;;;4.95;0.98;;;15.10;99.90;;;;;;5081461;28;20599;-70
2022/06/13 08:18:19;;;;;;;3.35;0.80;;;15.30;99.90;;;;;;5076642;28;20033;-75
2022/06/13 08:20:45;;;;;;;2.50;0.93;;;15.60;99.90;;;;;;5048421;28;20356;-74
2022/06/13 08:23:12;;;;;;;;;;;15.90;99.90;;;;;;5071283;28;20058;-74
2022/06/13 08:25:39;;;;;;;3.45;1.10;;;16.30;99.90;;;;;;5051560;28;19922;-74
2022/06/13 08:28:06;;;;;;;3.33;0.80;;;16.40;99.90;;;;;;5077180;28;20056;-75
2022/06/13 08:30:47;;;;;;;3.42;0.88;;;16.40;99.90;;;;;;5057935;28;20040;-74
2022/06/13 08:33:13;;;;;;;5.20;0.90;;;16.70;99.90;;;;;;5065722;28;20142;-74
2022/06/13 08:35:40;;;;;;;3.13;0.80;;;16.60;99.90;;;;;;5053702;28;20048;-75
2022/06/13 08:38:06;;;;;;;3.97;1.10;;;16.60;99.90;;;;;;5083721;28;20388;-75
2022/06/13 08:40:57;;;;;;;5.03;1.17;;;16.50;99.90;;;;;;5053694;28;20044;-75
2022/06/13 08:43:44;;;;;;;7.55;1.20;;;16.30;99.90;;;;;;5055545;28;20095;-75
2022/06/13 08:46:22;;;;;;;;;;;15.80;99.90;;;;;;5066395;28;20046;-75
2022/06/13 08:48:58;;;;;;;4.30;1.27;;;15.30;99.90;;;;;;5067886;28;19998;-75
2022/06/13 08:51:50;;;;;;;;;;;15.50;99.90;;;;;;5070327;28;20107;-74
2022/06/13 08:54:31;;;;;;;4.60;0.90;;;16.00;99.90;;;;;;5061944;28;19933;-74
2022/06/13 08:57:00;;;;;;;3.30;0.93;;;16.50;99.90;;;;;;5062651;28;20509;-75
2022/06/13 08:59:36;;;;;;;4.70;1.23;;;16.20;99.90;;;;;;5046816;28;20332;-75
2022/06/13 09:02:15;;;;;;;5.72;1.05;;;15.90;99.90;;;;;;5061697;28;20043;-75
2022/06/13 09:05:09;;;;;;;4.13;0.95;;;16.00;99.90;;;;;;5065756;28;20044;-75
2022/06/13 09:08:05;;;;;;;3.72;0.88;;;16.40;99.90;;;;;;5042956;28;20444;-75
2022/06/13 09:10:54;;;;;;;3.88;1.08;;;16.90;99.90;;;;;;5030957;28;20411;-75
2022/06/13 09:13:32;;;;;;;6.03;1.13;;;16.70;99.90;;;;;;5063582;28;20080;-75
2022/06/13 09:16:01;;;;;;;7.50;1.23;;;16.60;99.90;;;;;;5060934;28;20056;-75
2022/06/13 09:18:38;;;;;;;2.83;0.73;;;16.80;99.90;;;;;;5053273;28;20122;-75
2022/06/13 09:21:09;;;;;;;4.03;1.10;;;17.00;99.90;;;;;;5071149;28;20040;-76
2022/06/13 09:23:48;;;;;;;3.17;1.00;;;17.30;99.90;;;;;;5053675;28;20052;-75
2022/06/13 09:26:22;;;;;;;3.45;1.20;;;16.70;99.90;;;;;;5065231;28;20040;-75
2022/06/13 09:28:53;;;;;;;6.82;1.50;;;16.50;99.90;;;;;;5052607;28;20392;-76
2022/06/13 09:31:33;;;;;;;6.20;1.30;;;16.20;99.90;;;;;;5049757;28;20124;-75
2022/06/13 09:34:16;;;;;;;3.75;0.95;;;16.30;99.90;;;;;;5060974;28;20052;-75
2022/06/13 09:36:57;;;;;;;4.30;1.23;;;16.60;99.90;;;;;;5059315;28;20045;-75
2022/06/13 09:39:23;;;;;;;4.35;1.10;;;16.60;99.90;;;;;;5065041;28;20055;-75
2022/06/13 09:42:15;;;;;;;9.50;1.67;;;16.50;99.90;;;;;;5069754;28;20383;-75
2022/06/13 09:45:10;;;;;;;8.73;1.50;;;16.30;99.90;;;;;;5065870;28;20049;-75
2022/06/13 09:48:16;;;;;;;5.85;1.20;;;16.30;99.90;;;;;;5052472;28;20518;-75
2022/06/13 09:50:50;;;;;;;6.65;1.60;;;17.00;99.90;;;;;;5015784;28;20773;-75
2022/06/13 09:53:35;;;;;;;5.47;1.50;;;17.20;99.90;;;;;;5068176;28;20076;-75
2022/06/13 09:56:29;;;;;;;4.82;1.35;;;16.90;99.90;;;;;;5069280;28;20049;-75
2022/06/13 09:59:10;;;;;;;6.28;1.40;;;16.30;99.90;;;;;;5067729;28;20044;-75
2022/06/13 10:01:48;;;;;;;5.38;1.20;;;16.70;99.90;;;;;;5066710;28;20480;-76
2022/06/13 10:04:39;;;;;;;6.60;1.55;;;16.80;99.90;;;;;;5066871;28;20392;-75
2022/06/13 10:07:25;;;;;;;4.80;1.10;;;16.30;99.90;;;;;;5046950;28;20048;-75
2022/06/13 10:10:16;;;;;;;5.53;1.38;;;16.60;99.90;;;;;;5061939;28;21026;-75
2022/06/13 10:13:19;;;;;;;10.95;1.90;;;16.90;99.90;;;;;;5067355;28;20083;-75
2022/06/13 10:16:03;;;;;;;5.90;1.30;;;16.80;99.90;;;;;;5068164;28;20094;-75
2022/06/13 10:19:07;;;;;;;3.50;0.98;;;16.90;99.90;;;;;;5065637;28;20115;-75
2022/06/13 10:21:46;;;;;;;4.15;1.58;;;17.00;99.90;;;;;;4969618;28;20486;-74
2022/06/13 10:24:11;;;;;;;5.38;1.50;;;17.00;99.90;;;;;;5053207;28;20422;-76
2022/06/13 10:26:59;;;;;;;5.40;1.35;;;16.70;99.90;;;;;;5066538;28;20411;-75
2022/06/13 10:29:27;;;;;;;4.15;1.05;;;16.60;99.90;;;;;;5065602;28;20052;-75
2022/06/13 10:32:21;;;;;;;5.53;1.15;;;16.50;99.90;;;;;;5072392;28;20511;-76
2022/06/13 10:35:16;;;;;;;6.05;1.15;;;16.80;99.90;;;;;;5071442;28;20059;-75
2022/06/13 10:37:50;;;;;;;4.38;1.20;;;16.90;99.90;;;;;;5046542;28;20039;-75
2022/06/13 10:40:17;;;;;;;7.90;1.80;;;16.90;99.90;;;;;;5070897;28;20729;-75
2022/06/13 10:42:45;;;;;;;4.88;1.25;;;16.60;99.90;;;;;;5066903;28;20036;-75
2022/06/13 10:45:15;;;;;;;5.45;1.33;;;16.70;99.90;;;;;;5045872;28;20567;-75
2022/06/13 10:47:48;;;;;;;5.90;1.40;;;17.10;99.90;;;;;;5052578;28;20510;-75
2022/06/13 10:50:38;;;;;;;5.93;1.42;;;17.50;99.90;;;;;;5058140;28;20048;-75
2022/06/13 10:53:13;;;;;;;9.57;1.88;;;17.20;99.90;;;;;;5054370;28;20068;-75
2022/06/13 10:55:42;;;;;;;4.97;1.60;;;17.40;99.90;;;;;;5071198;28;20076;-75
2022/06/13 10:58:23;;;;;;;7.68;1.60;;;17.20;99.90;;;;;;5054651;28;20044;-75
2022/06/13 11:01:16;;;;;;;5.78;1.80;;;16.70;99.90;;;;;;5071880;28;20067;-75
2022/06/13 11:04:03;;;;;;;8.07;1.40;;;16.70;99.90;;;;;;5071689;28;20476;-75
2022/06/13 11:06:43;;;;;;;4.95;1.30;;;16.70;99.90;;;;;;5051881;28;20072;-75
2022/06/13 11:09:27;;;;;;;5.85;1.50;;;17.10;99.90;;;;;;5077417;28;20105;-75
2022/06/13 11:12:02;;;;;;;5.70;1.70;;;16.80;99.90;;;;;;5066575;28;20127;-75
2022/06/13 11:14:35;;;;;;;3.90;1.10;;;16.60;99.90;;;;;;5070338;28;20507;-75
2022/06/13 11:22:39;;;;;;;3.45;1.17;;;17.10;99.90;;;;;;5071537;28;20132;-75
2022/06/13 11:25:14;;;;;;;6.30;1.40;;;17.10;99.90;;;;;;5070604;28;20043;-76
2022/06/13 11:27:40;;;;;;;8.23;1.55;;;16.80;99.90;;;;;;5037910;28;20043;-76
2022/06/13 11:30:25;;;;;;;7.00;1.67;;;16.40;99.90;;;;;;5071680;28;20040;-75
2022/06/13 11:33:06;;;;;;;4.88;1.35;;;16.50;99.90;;;;;;5066943;28;20076;-75
2022/06/13 11:35:41;;;;;;;6.10;1.63;;;16.50;99.90;;;;;;5062627;28;20033;-76
2022/06/13 11:38:25;;;;;;;6.43;1.40;;;16.50;99.90;;;;;;5046024;28;20403;-76
2022/06/13 11:41:03;;;;;;;5.95;1.63;;;16.40;99.90;;;;;;5070354;28;20047;-76
2022/06/13 11:43:48;;;;;;;4.97;1.40;;;16.70;99.90;;;;;;5051301;28;20492;-75
2022/06/13 11:46:32;;;;;;;5.38;1.52;;;17.30;99.90;;;;;;5067713;28;20373;-75
2022/06/13 11:49:29;;;;;;;6.40;1.23;;;18.00;99.90;;;;;;5059297;28;20041;-75
2022/06/13 11:52:05;;;;;;;6.50;1.38;;;18.10;99.90;;;;;;5041357;28;20571;-75
2022/06/13 11:54:41;;;;;;;5.40;1.40;;;18.30;99.90;;;;;;5051453;28;20396;-75
2022/06/13 11:57:12;;;;;;;5.72;1.42;;;18.20;99.90;;;;;;5071331;28;20544;-75
2022/06/13 11:59:44;;;;;;;8.70;1.58;;;17.60;99.90;;;;;;5070946;28;20044;-75
2022/06/13 12:02:26;;;;;;;6.65;1.80;;;17.80;99.90;;;;;;5069539;28;20037;-76
2022/06/13 12:04:55;;;;;;;6.85;1.60;;;17.90;99.90;;;;;;5069893;28;20098;-76
2022/06/13 12:07:29;;;;;;;6.22;1.25;;;17.40;99.90;;;;;;5068840;28;20055;-76
2022/06/13 12:10:00;;;;;;;5.82;1.10;;;17.00;99.90;;;;;;5065423;28;20051;-76
2022/06/13 12:12:43;;;;;;;7.18;1.30;;;17.00;99.90;;;;;;5069993;28;20160;-76
2022/06/13 12:15:13;;;;;;;3.97;1.10;;;17.20;99.90;;;;;;5070036;28;20379;-75
2022/06/13 12:17:46;;;;;;;4.90;1.48;;;17.30;99.90;;;;;;5060253;28;20134;-75
2022/06/13 12:20:28;;;;;;;6.93;1.63;;;17.10;99.90;;;;;;5073121;28;20052;-76
2022/06/13 12:23:00;;;;;;;6.82;1.30;;;16.70;99.90;;;;;;5076859;28;20152;-75
2022/06/13 12:26:00;;;;;;;4.78;1.35;;;16.70;99.90;;;;;;5069351;28;20131;-75
2022/06/13 12:28:36;;;;;;;5.45;1.20;;;17.20;99.90;;;;;;5069793;28;20056;-75
2022/06/13 12:31:19;;;;;;;7.00;1.25;;;17.70;99.90;;;;;;5047844;28;20084;-75
2022/06/13 12:33:53;;;;;;;3.33;0.93;;;17.70;99.90;;;;;;5061359;28;20070;-75
2022/06/13 12:36:22;;;;;;;5.55;1.10;;;17.60;99.90;;;;;;5069539;28;20040;-75
2022/06/13 12:39:09;;;;;;;11.32;2.50;;;17.50;99.90;;;;;;5068055;28;20127;-76
2022/06/13 12:42:02;;;;;;;4.90;1.40;;;17.30;99.90;;;;;;5066268;28;20199;-75
2022/06/13 12:44:46;;;;;;;4.60;1.10;;;17.20;99.90;;;;;;5070032;28;20127;-76
2022/06/13 12:47:24;;;;;;;4.78;1.30;;;17.30;99.90;;;;;;5068909;28;20048;-75
2022/06/13 12:49:50;;;;;;;5.97;1.20;;;17.20;99.90;;;;;;5081913;28;20041;-71
2022/06/13 12:52:24;;;;;;;;;;;17.40;99.90;;;;;;5060137;28;20052;-71
2022/06/13 12:55:25;;;;;;;5.35;0.98;;;17.30;99.90;;;;;;5068650;28;19978;-71
2022/06/13 12:58:11;;;;;;;4.05;0.85;;;17.40;99.90;;;;;;5052458;28;20036;-71
2022/06/13 13:01:16;;;;;;;7.25;1.35;;;17.50;99.90;;;;;;5058072;28;20055;-71
2022/06/13 13:04:15;;;;;;;3.90;1.08;;;17.90;99.90;;;;;;5068063;28;20396;-71
2022/06/13 13:06:59;;;;;;;4.25;1.20;;;17.50;99.90;;;;;;5066179;28;20048;-71
2022/06/13 13:09:53;;;;;;;3.70;1.10;;;17.30;99.90;;;;;;5057441;28;20045;-71
2022/06/13 13:12:33;;;;;;;3.05;1.02;;;17.60;99.90;;;;;;5066850;28;20048;-71
2022/06/13 13:15:24;;;;;;;3.55;0.98;;;17.70;99.90;;;;;;5068515;28;20063;-70
2022/06/13 13:17:59;;;;;;;3.95;0.98;;;17.30;99.90;;;;;;5058669;28;20110;-72
2022/06/13 13:20:41;;;;;;;3.00;0.80;;;16.90;99.90;;;;;;5061484;28;20399;-71
2022/06/13 13:23:36;;;;;;;5.68;1.13;;;17.20;99.90;;;;;;5069119;28;20051;-71
2022/06/13 13:26:33;;;;;;;2.45;0.80;;;17.30;99.90;;;;;;5060007;28;20055;-71
2022/06/13 13:29:13;;;;;;;2.90;1.00;;;17.10;99.90;;;;;;5066143;28;20068;-71
2022/06/13 13:32:02;;;;;;;4.20;0.98;;;17.50;99.90;;;;;;5070777;28;20059;-71
2022/06/13 13:34:43;;;;;;;3.88;1.00;;;17.50;99.90;;;;;;5063976;28;20504;-71
2022/06/13 13:37:32;;;;;;;2.72;0.75;;;17.00;99.90;;;;;;5066622;28;20433;-71
2022/06/13 13:40:03;;;;;;;1.73;0.60;;;17.00;99.00;;;;;;5053717;28;20052;-71
2022/06/13 13:42:45;;;;;;;1.80;0.68;;;17.00;99.90;;;;;;5056788;28;20036;-70
2022/06/13 13:45:20;;;;;;;2.67;0.88;;;17.10;99.90;;;;;;5056675;28;20415;-71
2022/06/13 13:47:51;;;;;;;2.08;0.70;;;17.10;99.90;;;;;;5051080;28;20037;-70